Terminal Aerodrome Forecast
Issued by NWS

Home | Current Version | Previous Version | Text Only | Print | Product List | Glossary On
Versions: 1 2 3 4 5 6 7 8 9 10 11 12 13 14
000
FTUS43 KSGF 210500
TAFJLN
TAF
KJLN 210520Z 2106/2206 17006KT P6SM FEW080 OVC120
     FM210700 17007KT 6SM -SHRA BR SCT035 OVC070
      TEMPO 2109/2113 4SM SHRA BR SCT025 OVC040
     FM211300 20009KT 4SM -SHRA BR SCT015 OVC025
     FM211700 24010KT 5SM -SHRA VCTS SCT015 OVC030CB
     FM212000 28010KT P6SM -SHRA VCTS BKN040CB OVC120
     FM220000 33007KT P6SM BKN100=

USA.gov is the U.S. government's official web portal to all federal, state and local government web resources and services.